createdAt,value
2018-10-21T00:00:00.866Z,10.80
2018-10-21T00:02:29.875Z,10.70
2018-10-21T00:04:58.890Z,10.70
2018-10-21T00:07:27.833Z,10.70
2018-10-21T00:09:56.789Z,10.70
2018-10-21T00:12:25.730Z,10.70
2018-10-21T00:14:54.724Z,10.70
2018-10-21T00:17:23.818Z,10.70
2018-10-21T00:19:52.726Z,10.70
2018-10-21T00:22:21.657Z,10.70
2018-10-21T00:24:50.976Z,10.60
2018-10-21T00:27:20.596Z,10.60
2018-10-21T00:29:49.524Z,10.50
2018-10-21T00:32:18.446Z,10.50
2018-10-21T00:34:47.379Z,10.50
2018-10-21T00:37:16.304Z,10.50
2018-10-21T00:39:45.275Z,10.40
2018-10-21T00:42:14.201Z,10.40
2018-10-21T00:44:43.132Z,10.40
2018-10-21T00:47:12.062Z,10.40
2018-10-21T00:49:40.990Z,10.40
2018-10-21T00:52:09.906Z,10.40
2018-10-21T00:54:39.054Z,10.40
2018-10-21T00:57:07.976Z,10.40
2018-10-21T00:59:37.116Z,10.40
2018-10-21T01:02:06.679Z,10.30
2018-10-21T01:04:35.591Z,10.30
2018-10-21T01:07:04.540Z,10.30
2018-10-21T01:09:33.561Z,10.30
2018-10-21T01:12:02.450Z,10.30
2018-10-21T01:14:31.376Z,10.40
2018-10-21T01:17:00.317Z,10.40
2018-10-21T01:19:29.267Z,10.40
2018-10-21T01:21:58.175Z,10.40
2018-10-21T01:24:27.078Z,10.40
2018-10-21T01:26:56.075Z,10.40
2018-10-21T01:29:25.151Z,10.40
2018-10-21T01:31:54.079Z,10.50
2018-10-21T01:34:22.986Z,10.50
2018-10-21T01:36:51.982Z,10.50
2018-10-21T01:40:34.543Z,10.40
2018-10-21T01:43:04.286Z,10.40
2018-10-21T01:45:33.212Z,10.30
2018-10-21T01:48:03.244Z,10.20
2018-10-21T01:50:32.490Z,10.10
2018-10-21T01:53:03.470Z,10.00
2018-10-21T01:55:32.475Z,9.90
2018-10-21T01:58:01.962Z,9.80
2018-10-21T02:00:31.498Z,9.80
2018-10-21T02:03:00.788Z,9.80
2018-10-21T02:05:30.532Z,9.80
2018-10-21T02:07:59.808Z,9.80
2018-10-21T02:10:28.732Z,9.90
2018-10-21T02:12:57.682Z,10.00
2018-10-21T02:15:26.606Z,10.10
2018-10-21T02:17:55.924Z,10.20
2018-10-21T02:20:25.292Z,10.30
2018-10-21T02:22:54.398Z,10.30
2018-10-21T02:25:23.329Z,10.30
2018-10-21T02:27:52.752Z,10.30
2018-10-21T02:30:23.849Z,10.30
2018-10-21T02:32:53.324Z,10.30
2018-10-21T02:35:22.848Z,10.20
2018-10-21T02:37:52.261Z,10.20
2018-10-21T02:41:34.442Z,10.10
2018-10-21T02:44:04.041Z,10.10
2018-10-21T02:46:33.385Z,10.00
2018-10-21T02:49:02.988Z,9.90
2018-10-21T02:51:31.880Z,9.90
2018-10-21T02:54:00.819Z,9.90
2018-10-21T02:56:29.789Z,9.90
2018-10-21T02:58:58.706Z,9.90
2018-10-21T03:01:27.637Z,9.90
2018-10-21T03:03:56.616Z,9.90
2018-10-21T03:06:25.881Z,9.90
2018-10-21T03:08:54.841Z,9.90
2018-10-21T03:11:23.951Z,9.90
2018-10-21T03:13:52.889Z,9.90
2018-10-21T03:16:21.801Z,9.90
2018-10-21T03:18:51.099Z,10.00
2018-10-21T03:21:20.131Z,10.00
2018-10-21T03:23:49.128Z,10.10
2018-10-21T03:26:18.077Z,10.10
2018-10-21T03:28:47.220Z,10.10
2018-10-21T03:31:16.128Z,10.00
2018-10-21T03:33:45.084Z,9.90
2018-10-21T03:36:14.204Z,9.80
2018-10-21T03:38:43.146Z,9.60
2018-10-21T03:41:12.442Z,9.60
2018-10-21T03:43:41.374Z,9.50
2018-10-21T03:46:11.921Z,9.50
2018-10-21T03:48:41.776Z,9.60
2018-10-21T03:51:10.978Z,9.60
2018-10-21T03:53:39.942Z,9.60
2018-10-21T03:56:08.924Z,9.50
2018-10-21T03:58:37.892Z,9.40
2018-10-21T04:01:07.250Z,9.30
2018-10-21T04:03:36.225Z,9.20
2018-10-21T04:06:05.152Z,9.20
2018-10-21T04:08:34.075Z,9.10
2018-10-21T04:11:03.010Z,9.00
2018-10-21T04:13:31.952Z,9.00
2018-10-21T04:16:00.888Z,9.00
2018-10-21T04:18:30.028Z,8.90
2018-10-21T04:20:58.940Z,8.90
2018-10-21T04:23:27.864Z,8.90
2018-10-21T04:25:56.797Z,8.90
2018-10-21T04:28:25.680Z,8.80
2018-10-21T04:30:54.601Z,8.80
2018-10-21T04:33:53.637Z,8.70
2018-10-21T04:36:24.673Z,8.70
2018-10-21T04:40:14.800Z,8.70
2018-10-21T04:42:44.607Z,8.60
2018-10-21T04:45:15.304Z,8.60
2018-10-21T04:47:44.225Z,8.60
2018-10-21T04:50:13.713Z,8.50
2018-10-21T04:52:42.617Z,8.50
2018-10-21T04:55:13.557Z,8.40
2018-10-21T04:57:43.627Z,8.40
2018-10-21T05:00:15.407Z,8.30
2018-10-21T05:02:44.717Z,8.30
2018-10-21T05:05:14.511Z,8.20
2018-10-21T05:07:43.527Z,8.20
2018-10-21T05:10:22.307Z,8.20
2018-10-21T05:12:51.261Z,8.20
2018-10-21T05:15:19.794Z,8.10
2018-10-21T05:17:48.891Z,8.10
2018-10-21T05:20:17.863Z,8.00
2018-10-21T05:22:46.767Z,8.00
2018-10-21T05:25:15.126Z,8.00
2018-10-21T05:27:44.072Z,7.90
2018-10-21T05:30:13.122Z,7.90
2018-10-21T05:32:42.488Z,7.90
2018-10-21T05:35:13.208Z,7.80
2018-10-21T05:37:42.236Z,7.80
2018-10-21T05:40:13.655Z,7.80
2018-10-21T05:42:42.738Z,7.80
2018-10-21T05:45:11.682Z,7.80
2018-10-21T05:47:40.472Z,7.80
2018-10-21T05:50:09.894Z,7.80
2018-10-21T05:52:38.368Z,7.80
2018-10-21T05:55:07.982Z,7.80
2018-10-21T05:57:37.112Z,7.80
2018-10-21T06:00:11.764Z,7.90
2018-10-21T06:02:40.971Z,7.90
2018-10-21T06:05:43.400Z,7.90
2018-10-21T06:08:12.417Z,7.90
2018-10-21T06:10:41.748Z,7.90
2018-10-21T06:13:11.064Z,7.90
2018-10-21T06:15:40.231Z,8.00
2018-10-21T06:18:25.733Z,7.90
2018-10-21T06:20:57.585Z,8.00
2018-10-21T06:23:26.521Z,8.00
2018-10-21T06:25:55.455Z,8.00
2018-10-21T06:28:24.421Z,8.00
2018-10-21T06:30:53.393Z,8.00
2018-10-21T06:33:29.009Z,8.00
2018-10-21T06:35:58.415Z,8.00
2018-10-21T06:38:27.466Z,8.00
2018-10-21T06:40:56.407Z,8.00
2018-10-21T06:43:25.374Z,8.10
2018-10-21T06:45:54.304Z,8.10
2018-10-21T06:48:23.247Z,8.10
2018-10-21T06:50:52.441Z,8.10
2018-10-21T06:53:21.497Z,8.20
2018-10-21T06:55:50.411Z,8.20
2018-10-21T06:58:19.609Z,8.30
2018-10-21T07:00:48.743Z,8.30
2018-10-21T07:03:17.738Z,8.30
2018-10-21T07:06:22.066Z,8.40
2018-10-21T07:08:52.065Z,8.40
2018-10-21T07:11:20.975Z,8.50
2018-10-21T07:13:49.933Z,8.60
2018-10-21T07:16:18.984Z,8.60
2018-10-21T07:18:54.584Z,8.70
2018-10-21T07:21:23.524Z,8.80
2018-10-21T07:23:52.548Z,8.80
2018-10-21T07:26:21.710Z,8.90
2018-10-21T07:28:50.630Z,8.90
2018-10-21T07:31:19.562Z,9.00
2018-10-21T07:33:48.532Z,9.00
2018-10-21T07:36:17.558Z,9.10
2018-10-21T07:38:46.710Z,9.10
2018-10-21T07:41:15.631Z,9.20
2018-10-21T07:43:44.640Z,9.30
2018-10-21T07:46:13.760Z,9.40
2018-10-21T07:48:42.850Z,9.40
2018-10-21T07:51:11.806Z,9.50
2018-10-21T07:53:40.792Z,9.50
2018-10-21T07:56:09.798Z,9.50
2018-10-21T07:58:38.730Z,9.60
2018-10-21T08:01:07.785Z,9.60
2018-10-21T08:03:36.822Z,9.70
2018-10-21T08:06:29.110Z,9.70
2018-10-21T08:08:58.195Z,9.70
2018-10-21T08:11:27.156Z,9.80
2018-10-21T08:13:56.110Z,9.80
2018-10-21T08:16:25.035Z,9.80
2018-10-21T08:18:54.173Z,9.90
2018-10-21T08:21:23.131Z,9.90
2018-10-21T08:23:52.304Z,10.00
2018-10-21T08:26:21.263Z,10.00
2018-10-21T08:28:50.191Z,10.10
2018-10-21T08:31:19.136Z,10.20
2018-10-21T08:33:48.069Z,10.30
2018-10-21T08:36:17.004Z,10.30
2018-10-21T08:38:45.921Z,10.40
2018-10-21T08:41:14.877Z,10.40
2018-10-21T08:43:43.797Z,10.50
2018-10-21T08:46:12.819Z,10.50
2018-10-21T08:48:41.855Z,10.60
2018-10-21T08:51:10.818Z,10.70
2018-10-21T08:53:39.772Z,10.70
2018-10-21T08:56:08.769Z,10.80
2018-10-21T08:58:37.722Z,10.80
2018-10-21T09:01:07.122Z,10.90
2018-10-21T09:03:36.347Z,10.90
2018-10-21T09:06:05.789Z,11.00
2018-10-21T09:08:34.725Z,11.10
2018-10-21T09:11:04.142Z,11.10
2018-10-21T09:13:33.173Z,11.10
2018-10-21T09:16:02.151Z,11.20
2018-10-21T09:18:31.205Z,11.20
2018-10-21T09:21:00.175Z,11.30
2018-10-21T09:23:29.113Z,11.40
2018-10-21T09:25:58.060Z,11.40
2018-10-21T09:28:26.999Z,11.50
2018-10-21T09:30:55.953Z,11.70
2018-10-21T09:33:25.079Z,11.90
2018-10-21T09:35:54.202Z,12.10
2018-10-21T09:38:23.130Z,12.30
2018-10-21T09:40:52.088Z,12.50
2018-10-21T09:43:21.385Z,12.70
2018-10-21T09:45:50.322Z,12.80
2018-10-21T09:48:19.292Z,12.80
2018-10-21T09:50:48.251Z,12.70
2018-10-21T09:53:17.190Z,12.80
2018-10-21T09:55:46.138Z,12.90
2018-10-21T09:58:15.133Z,13.00
2018-10-21T10:00:49.434Z,13.00
2018-10-21T10:03:18.349Z,12.90
2018-10-21T10:05:47.278Z,12.90
2018-10-21T10:08:16.214Z,12.80
2018-10-21T10:10:45.170Z,12.80
2018-10-21T10:13:14.224Z,12.80
2018-10-21T10:15:43.250Z,12.80
2018-10-21T10:18:12.190Z,12.80
2018-10-21T10:20:41.106Z,12.80
2018-10-21T10:23:10.082Z,12.80
2018-10-21T10:25:38.996Z,12.80
2018-10-21T10:28:07.994Z,12.80
2018-10-21T10:30:37.279Z,12.80
2018-10-21T10:33:06.312Z,12.80
2018-10-21T10:35:35.250Z,12.90
2018-10-21T10:38:04.290Z,12.90
2018-10-21T10:40:33.270Z,13.00
2018-10-21T10:43:02.239Z,13.10
2018-10-21T10:45:31.360Z,13.20
2018-10-21T10:48:00.298Z,13.30
2018-10-21T10:50:29.230Z,13.40
2018-10-21T10:52:58.292Z,13.50
2018-10-21T10:55:32.513Z,13.60
2018-10-21T10:58:01.528Z,13.70
2018-10-21T11:00:30.596Z,13.60
2018-10-21T11:03:05.959Z,13.70
2018-10-21T11:05:34.894Z,13.70
2018-10-21T11:08:03.833Z,13.70
2018-10-21T11:10:33.013Z,13.60
2018-10-21T11:13:02.144Z,13.50
2018-10-21T11:15:31.355Z,13.40
2018-10-21T11:18:00.276Z,13.40
2018-10-21T11:20:29.591Z,13.30
2018-10-21T11:22:58.567Z,13.30
2018-10-21T11:25:27.517Z,13.40
2018-10-21T11:27:56.441Z,13.50
2018-10-21T11:30:25.537Z,13.40
2018-10-21T11:32:54.493Z,13.40
2018-10-21T11:35:23.411Z,13.30
2018-10-21T11:37:52.469Z,13.30
2018-10-21T11:40:21.413Z,13.20
2018-10-21T11:42:50.291Z,13.20
2018-10-21T11:45:19.221Z,13.20
2018-10-21T11:47:48.848Z,13.20
2018-10-21T11:50:17.822Z,13.40
2018-10-21T11:52:47.127Z,13.50
2018-10-21T11:55:16.580Z,13.60
2018-10-21T11:57:45.649Z,13.70
2018-10-21T12:00:14.916Z,13.60
2018-10-21T12:02:44.194Z,13.50
2018-10-21T12:05:13.103Z,13.50
2018-10-21T12:07:42.014Z,13.50
2018-10-21T12:10:11.201Z,13.50
2018-10-21T12:12:40.239Z,13.50
2018-10-21T12:15:09.168Z,13.60
2018-10-21T12:17:38.137Z,13.70
2018-10-21T12:20:07.102Z,13.80
2018-10-21T12:22:36.048Z,13.80
2018-10-21T12:25:05.667Z,13.90
2018-10-21T12:27:34.764Z,13.90
2018-10-21T12:30:04.113Z,14.00
2018-10-21T12:32:33.024Z,14.00
2018-10-21T12:35:02.058Z,14.10
2018-10-21T12:37:31.114Z,14.10
2018-10-21T12:40:00.061Z,14.00
2018-10-21T12:42:29.134Z,14.00
2018-10-21T12:44:58.075Z,14.10
2018-10-21T12:47:26.959Z,14.10
2018-10-21T12:49:55.856Z,14.10
2018-10-21T12:52:24.869Z,14.10
2018-10-21T12:54:53.864Z,14.10
2018-10-21T12:57:22.999Z,14.10
2018-10-21T12:59:51.956Z,14.10
2018-10-21T13:02:21.287Z,14.00
2018-10-21T13:04:50.422Z,14.10
2018-10-21T13:07:19.421Z,14.10
2018-10-21T13:09:48.471Z,14.10
2018-10-21T13:12:17.424Z,14.20
2018-10-21T13:14:46.311Z,14.30
2018-10-21T13:17:15.234Z,14.40
2018-10-21T13:19:44.196Z,14.50
2018-10-21T13:22:13.691Z,14.60
2018-10-21T13:24:42.717Z,14.70
2018-10-21T13:27:11.669Z,14.80
2018-10-21T13:29:40.573Z,14.90
2018-10-21T13:32:09.551Z,15.00
2018-10-21T13:34:38.563Z,15.10
2018-10-21T13:37:07.671Z,15.10
2018-10-21T13:39:36.764Z,15.10
2018-10-21T13:42:06.072Z,15.20
2018-10-21T13:44:35.011Z,15.30
2018-10-21T13:47:03.963Z,15.30
2018-10-21T13:49:32.871Z,15.40
2018-10-21T13:52:02.074Z,15.40
2018-10-21T13:54:30.895Z,15.50
2018-10-21T13:56:59.836Z,15.50
2018-10-21T13:59:28.780Z,15.50
2018-10-21T14:01:57.721Z,15.50
2018-10-21T14:04:26.641Z,15.50
2018-10-21T14:06:55.666Z,15.60
2018-10-21T14:09:24.716Z,15.60
2018-10-21T14:11:53.657Z,15.60
2018-10-21T14:14:22.588Z,15.50
2018-10-21T14:16:51.515Z,15.50
2018-10-21T14:19:20.794Z,15.60
2018-10-21T14:21:49.720Z,15.70
2018-10-21T14:24:18.940Z,15.60
2018-10-21T14:26:47.987Z,15.50
2018-10-21T14:29:17.072Z,15.50
2018-10-21T14:31:46.013Z,15.30
2018-10-21T14:34:14.962Z,15.30
2018-10-21T14:36:43.876Z,15.30
2018-10-21T14:39:13.718Z,15.30
2018-10-21T14:41:42.776Z,15.40
2018-10-21T14:44:11.728Z,15.40
2018-10-21T14:46:40.628Z,15.40
2018-10-21T14:49:10.114Z,15.40
2018-10-21T14:51:39.045Z,15.60
2018-10-21T14:54:08.031Z,15.70
2018-10-21T14:56:37.207Z,15.80
2018-10-21T14:59:06.126Z,15.90
2018-10-21T15:01:35.110Z,16.00
2018-10-21T15:04:04.155Z,16.10
2018-10-21T15:06:33.279Z,16.10
2018-10-21T15:09:02.623Z,16.00
2018-10-21T15:11:31.712Z,15.90
2018-10-21T15:14:00.704Z,15.70
2018-10-21T15:16:29.813Z,15.40
2018-10-21T15:18:58.760Z,15.20
2018-10-21T15:21:27.724Z,15.00
2018-10-21T15:23:56.622Z,14.80
2018-10-21T15:26:25.605Z,14.60
2018-10-21T15:28:54.556Z,14.50
2018-10-21T15:31:23.673Z,14.30
2018-10-21T15:33:52.603Z,14.20
2018-10-21T15:36:21.557Z,14.10
2018-10-21T15:38:50.521Z,14.00
2018-10-21T15:41:19.657Z,13.90
2018-10-21T15:43:48.654Z,13.80
2018-10-21T15:46:17.627Z,13.70
2018-10-21T15:48:46.909Z,13.70
2018-10-21T15:51:16.379Z,13.60
2018-10-21T15:53:45.279Z,13.50
2018-10-21T15:56:14.327Z,13.30
2018-10-21T15:58:43.425Z,13.20
2018-10-21T16:01:12.364Z,13.10
2018-10-21T16:03:41.299Z,12.90
2018-10-21T16:06:10.206Z,12.80
2018-10-21T16:08:39.110Z,12.80
2018-10-21T16:11:08.204Z,12.70
2018-10-21T16:13:37.189Z,12.50
2018-10-21T16:16:06.486Z,12.50
2018-10-21T16:18:35.680Z,12.30
2018-10-21T16:21:05.042Z,12.30
2018-10-21T16:23:33.988Z,12.20
2018-10-21T16:26:03.044Z,12.10
2018-10-21T16:28:32.093Z,12.00
2018-10-21T16:31:01.021Z,11.90
2018-10-21T16:33:29.954Z,11.90
2018-10-21T16:35:58.922Z,11.80
2018-10-21T16:38:27.960Z,11.80
2018-10-21T16:40:57.126Z,11.70
2018-10-21T16:43:26.042Z,11.60
2018-10-21T16:45:56.767Z,11.60
2018-10-21T16:48:25.671Z,11.50
2018-10-21T16:50:54.641Z,11.40
2018-10-21T16:53:23.827Z,11.40
2018-10-21T16:55:52.940Z,11.30
2018-10-21T16:58:21.871Z,11.30
2018-10-21T17:00:57.165Z,11.20
2018-10-21T17:03:26.366Z,11.10
2018-10-21T17:05:55.517Z,11.10
2018-10-21T17:08:24.638Z,11.00
2018-10-21T17:10:53.631Z,11.00
2018-10-21T17:13:22.681Z,11.00
2018-10-21T17:15:51.614Z,10.90
2018-10-21T17:18:20.561Z,10.80
2018-10-21T17:20:49.562Z,10.70
2018-10-21T17:23:18.482Z,10.70
2018-10-21T17:25:47.436Z,10.60
2018-10-21T17:28:16.471Z,10.60
2018-10-21T17:30:45.511Z,10.60
2018-10-21T17:33:14.455Z,10.60
2018-10-21T17:35:43.531Z,10.50
2018-10-21T17:38:12.465Z,10.50
2018-10-21T17:40:41.456Z,10.40
2018-10-21T17:43:10.618Z,10.40
2018-10-21T17:45:39.703Z,10.30
2018-10-21T17:48:08.634Z,10.30
2018-10-21T17:50:37.590Z,10.20
2018-10-21T17:53:06.483Z,10.20
2018-10-21T17:55:35.429Z,10.10
2018-10-21T17:58:05.049Z,10.10
2018-10-21T18:00:34.133Z,10.00
2018-10-21T18:03:03.161Z,10.00
2018-10-21T18:05:32.119Z,9.90
2018-10-21T18:08:01.053Z,9.90
2018-10-21T18:10:30.014Z,9.80
2018-10-21T18:12:59.034Z,9.80
2018-10-21T18:15:28.125Z,9.70
2018-10-21T18:17:57.039Z,9.70
2018-10-21T18:20:26.040Z,9.70
2018-10-21T18:22:55.169Z,9.70
2018-10-21T18:25:24.427Z,9.60
2018-10-21T18:27:53.352Z,9.60
2018-10-21T18:30:22.286Z,9.50
2018-10-21T18:32:51.220Z,9.50
2018-10-21T18:35:20.363Z,9.50
2018-10-21T18:37:49.289Z,9.40
2018-10-21T18:40:18.411Z,9.40
2018-10-21T18:42:47.579Z,9.40
2018-10-21T18:45:16.608Z,9.40
2018-10-21T18:47:45.552Z,9.30
2018-10-21T18:50:15.187Z,9.30
2018-10-21T18:52:44.212Z,9.30
2018-10-21T18:55:13.473Z,9.20
2018-10-21T18:57:42.583Z,9.20
2018-10-21T19:00:14.698Z,9.20
2018-10-21T19:02:43.642Z,9.20
2018-10-21T19:05:13.148Z,9.10
2018-10-21T19:07:42.474Z,9.10
2018-10-21T19:10:12.825Z,9.10
2018-10-21T19:12:42.295Z,9.00
2018-10-21T19:15:12.280Z,9.00
2018-10-21T19:17:41.828Z,9.00
2018-10-21T19:20:12.946Z,8.90
2018-10-21T19:22:42.108Z,8.90
2018-10-21T19:25:12.336Z,8.80
2018-10-21T19:27:41.797Z,8.80
2018-10-21T19:30:11.721Z,8.80
2018-10-21T19:32:41.172Z,8.80
2018-10-21T19:35:11.217Z,8.70
2018-10-21T19:37:40.295Z,8.70
2018-10-21T19:40:10.904Z,8.70
2018-10-21T19:42:40.033Z,8.70
2018-10-21T19:45:10.363Z,8.60
2018-10-21T19:47:39.547Z,8.60
2018-10-21T19:50:10.397Z,8.60
2018-10-21T19:52:39.223Z,8.60
2018-10-21T19:55:08.642Z,8.50
2018-10-21T19:57:37.560Z,8.50
2018-10-21T20:00:08.577Z,8.50
2018-10-21T20:02:37.527Z,8.50
2018-10-21T20:05:07.527Z,8.40
2018-10-21T20:07:36.527Z,8.40
2018-10-21T20:10:07.423Z,8.40
2018-10-21T20:12:36.671Z,8.40
2018-10-21T20:15:06.415Z,8.40
2018-10-21T20:17:35.333Z,8.30
2018-10-21T20:20:04.958Z,8.30
2018-10-21T20:22:33.885Z,8.30
2018-10-21T20:25:02.851Z,8.30
2018-10-21T20:27:31.920Z,8.20
2018-10-21T20:30:00.826Z,8.20
2018-10-21T20:32:29.796Z,8.20
2018-10-21T20:34:58.748Z,8.20
2018-10-21T20:37:27.742Z,8.20
2018-10-21T20:39:56.716Z,8.20
2018-10-21T20:42:26.133Z,8.20
2018-10-21T20:44:55.050Z,8.20
2018-10-21T20:47:23.434Z,8.10
2018-10-21T20:49:51.799Z,8.20
2018-10-21T20:52:20.751Z,8.20
2018-10-21T20:54:50.238Z,8.10
2018-10-21T20:57:18.594Z,8.10
2018-10-21T20:59:47.960Z,8.10
2018-10-21T21:02:16.795Z,8.00
2018-10-21T21:04:45.712Z,8.00
2018-10-21T21:07:14.662Z,8.00
2018-10-21T21:09:43.753Z,8.00
2018-10-21T21:12:12.719Z,8.00
2018-10-21T21:14:41.834Z,8.00
2018-10-21T21:17:10.756Z,7.90
2018-10-21T21:19:39.110Z,7.90
2018-10-21T21:22:07.559Z,7.90
2018-10-21T21:24:36.033Z,7.90
2018-10-21T21:27:05.304Z,7.90
2018-10-21T21:29:34.419Z,7.90
2018-10-21T21:32:02.785Z,7.90
2018-10-21T21:34:31.700Z,7.90
2018-10-21T21:37:00.096Z,7.90
2018-10-21T21:39:28.441Z,7.80
2018-10-21T21:41:56.812Z,7.80
2018-10-21T21:44:25.367Z,7.80
2018-10-21T21:46:54.291Z,7.80
2018-10-21T21:49:23.211Z,7.80
2018-10-21T21:51:52.151Z,7.80
2018-10-21T21:54:21.065Z,7.80
2018-10-21T21:56:49.437Z,7.80
2018-10-21T21:59:17.768Z,7.80
2018-10-21T22:01:46.187Z,7.80
2018-10-21T22:04:14.601Z,7.80
2018-10-21T22:06:43.113Z,7.80
2018-10-21T22:09:13.323Z,7.80
2018-10-21T22:11:42.267Z,7.80
2018-10-21T22:14:11.612Z,7.80
2018-10-21T22:16:40.543Z,7.80
2018-10-21T22:19:09.511Z,7.80
2018-10-21T22:21:38.597Z,7.80
2018-10-21T22:24:08.851Z,7.80
2018-10-21T22:26:37.841Z,7.80
2018-10-21T22:29:07.033Z,7.80
2018-10-21T22:31:35.978Z,7.70
2018-10-21T22:34:04.716Z,7.70
2018-10-21T22:36:33.299Z,7.70
2018-10-21T22:39:01.677Z,7.70
2018-10-21T22:41:30.557Z,7.70
2018-10-21T22:43:58.920Z,7.70
2018-10-21T22:46:28.207Z,7.60
2018-10-21T22:48:56.771Z,7.60
2018-10-21T22:51:25.145Z,7.60
2018-10-21T22:53:54.131Z,7.60
2018-10-21T22:56:23.207Z,7.60
2018-10-21T22:58:51.684Z,7.60
2018-10-21T23:01:20.033Z,7.60
2018-10-21T23:03:48.449Z,7.60
2018-10-21T23:06:17.481Z,7.60
2018-10-21T23:08:46.480Z,7.60
2018-10-21T23:11:14.824Z,7.60
2018-10-21T23:13:43.173Z,7.60
2018-10-21T23:16:11.567Z,7.60
2018-10-21T23:18:40.168Z,7.60
2018-10-21T23:21:08.631Z,7.60
2018-10-21T23:23:36.994Z,7.50
2018-10-21T23:26:05.509Z,7.60
2018-10-21T23:28:33.853Z,7.60
2018-10-21T23:31:02.784Z,7.50
2018-10-21T23:33:31.153Z,7.50
2018-10-21T23:36:00.109Z,7.50
2018-10-21T23:38:28.617Z,7.50
2018-10-21T23:40:56.960Z,7.50
2018-10-21T23:43:25.322Z,7.50
2018-10-21T23:45:54.106Z,7.50
2018-10-21T23:48:22.618Z,7.50
2018-10-21T23:50:50.962Z,7.40
2018-10-21T23:53:19.342Z,7.40
2018-10-21T23:55:47.668Z,7.40
2018-10-21T23:58:16.089Z,7.30
